sensor_id;sensor_type;location;lat;lon;timestamp;P1;durP1;ratioP1;P2;durP2;ratioP2
6840;SDS011;3458;53.678;14.080;2022-11-15T00:00:23;106.57;;;43.03;;
6840;SDS011;3458;53.678;14.080;2022-11-15T00:02:49;105.07;;;42.30;;
6840;SDS011;3458;53.678;14.080;2022-11-15T00:05:14;127.47;;;47.20;;
6840;SDS011;3458;53.678;14.080;2022-11-15T00:07:40;109.73;;;46.13;;
6840;SDS011;3458;53.678;14.080;2022-11-15T00:10:05;116.57;;;44.27;;
6840;SDS011;3458;53.678;14.080;2022-11-15T00:12:31;111.10;;;45.20;;
6840;SDS011;3458;53.678;14.080;2022-11-15T00:14:57;109.97;;;41.60;;
6840;SDS011;3458;53.678;14.080;2022-11-15T00:17:22;105.00;;;44.33;;
6840;SDS011;3458;53.678;14.080;2022-11-15T00:19:48;103.13;;;43.47;;
6840;SDS011;3458;53.678;14.080;2022-11-15T00:22:14;117.57;;;44.33;;
6840;SDS011;3458;53.678;14.080;2022-11-15T00:24:39;99.43;;;41.50;;
6840;SDS011;3458;53.678;14.080;2022-11-15T00:27:05;101.70;;;41.77;;
6840;SDS011;3458;53.678;14.080;2022-11-15T00:29:30;113.83;;;44.47;;
6840;SDS011;3458;53.678;14.080;2022-11-15T00:31:56;100.73;;;42.00;;
6840;SDS011;3458;53.678;14.080;2022-11-15T00:34:21;122.87;;;44.47;;
6840;SDS011;3458;53.678;14.080;2022-11-15T00:36:47;131.60;;;44.07;;
6840;SDS011;3458;53.678;14.080;2022-11-15T00:39:12;105.20;;;42.77;;
6840;SDS011;3458;53.678;14.080;2022-11-15T00:41:38;104.63;;;41.33;;
6840;SDS011;3458;53.678;14.080;2022-11-15T00:44:03;112.50;;;41.97;;
6840;SDS011;3458;53.678;14.080;2022-11-15T00:46:29;110.10;;;41.87;;
6840;SDS011;3458;53.678;14.080;2022-11-15T00:48:54;106.43;;;41.90;;
6840;SDS011;3458;53.678;14.080;2022-11-15T00:51:20;103.83;;;41.90;;
6840;SDS011;3458;53.678;14.080;2022-11-15T00:53:45;108.00;;;42.90;;
6840;SDS011;3458;53.678;14.080;2022-11-15T00:56:11;106.20;;;43.17;;
6840;SDS011;3458;53.678;14.080;2022-11-15T00:58:36;114.40;;;43.60;;
6840;SDS011;3458;53.678;14.080;2022-11-15T01:01:12;102.80;;;42.37;;
6840;SDS011;3458;53.678;14.080;2022-11-15T01:03:39;106.60;;;41.33;;
6840;SDS011;3458;53.678;14.080;2022-11-15T01:06:06;112.83;;;41.33;;
6840;SDS011;3458;53.678;14.080;2022-11-15T01:08:32;109.60;;;42.80;;
6840;SDS011;3458;53.678;14.080;2022-11-15T01:11:02;104.63;;;42.53;;
6840;SDS011;3458;53.678;14.080;2022-11-15T01:13:29;124.00;;;44.57;;
6840;SDS011;3458;53.678;14.080;2022-11-15T01:15:56;116.03;;;40.77;;
6840;SDS011;3458;53.678;14.080;2022-11-15T01:18:22;115.43;;;43.10;;
6840;SDS011;3458;53.678;14.080;2022-11-15T01:20:50;109.97;;;40.70;;
6840;SDS011;3458;53.678;14.080;2022-11-15T01:23:16;111.87;;;42.97;;
6840;SDS011;3458;53.678;14.080;2022-11-15T01:25:41;102.73;;;36.50;;
6840;SDS011;3458;53.678;14.080;2022-11-15T01:28:07;96.43;;;41.40;;
6840;SDS011;3458;53.678;14.080;2022-11-15T01:30:32;98.73;;;37.20;;
6840;SDS011;3458;53.678;14.080;2022-11-15T01:32:58;102.40;;;39.50;;
6840;SDS011;3458;53.678;14.080;2022-11-15T01:35:23;105.87;;;40.13;;
6840;SDS011;3458;53.678;14.080;2022-11-15T01:37:49;92.13;;;39.47;;
6840;SDS011;3458;53.678;14.080;2022-11-15T01:40:14;99.43;;;38.00;;
6840;SDS011;3458;53.678;14.080;2022-11-15T01:42:40;104.57;;;37.83;;
6840;SDS011;3458;53.678;14.080;2022-11-15T01:45:05;105.53;;;39.70;;
6840;SDS011;3458;53.678;14.080;2022-11-15T01:47:38;105.70;;;39.33;;
6840;SDS011;3458;53.678;14.080;2022-11-15T01:50:08;91.80;;;35.97;;
6840;SDS011;3458;53.678;14.080;2022-11-15T01:52:37;88.53;;;36.83;;
6840;SDS011;3458;53.678;14.080;2022-11-15T01:55:14;104.00;;;39.67;;
6840;SDS011;3458;53.678;14.080;2022-11-15T01:57:45;97.70;;;38.47;;
6840;SDS011;3458;53.678;14.080;2022-11-15T02:00:14;105.33;;;39.43;;
6840;SDS011;3458;53.678;14.080;2022-11-15T02:02:40;107.63;;;39.70;;
6840;SDS011;3458;53.678;14.080;2022-11-15T02:05:05;89.00;;;37.33;;
6840;SDS011;3458;53.678;14.080;2022-11-15T02:07:32;90.23;;;37.40;;
6840;SDS011;3458;53.678;14.080;2022-11-15T02:10:01;109.60;;;38.37;;
6840;SDS011;3458;53.678;14.080;2022-11-15T02:12:32;92.97;;;38.30;;
6840;SDS011;3458;53.678;14.080;2022-11-15T02:14:58;92.70;;;37.57;;
6840;SDS011;3458;53.678;14.080;2022-11-15T02:21:09;92.57;;;37.63;;
6840;SDS011;3458;53.678;14.080;2022-11-15T02:26:25;96.13;;;36.70;;
6840;SDS011;3458;53.678;14.080;2022-11-15T02:29:19;86.03;;;33.97;;
6840;SDS011;3458;53.678;14.080;2022-11-15T02:32:09;84.60;;;34.40;;
6840;SDS011;3458;53.678;14.080;2022-11-15T02:34:54;91.63;;;38.50;;
6840;SDS011;3458;53.678;14.080;2022-11-15T02:37:44;87.67;;;36.57;;
6840;SDS011;3458;53.678;14.080;2022-11-15T02:43:40;104.13;;;36.80;;
6840;SDS011;3458;53.678;14.080;2022-11-15T02:46:26;97.47;;;36.93;;
6840;SDS011;3458;53.678;14.080;2022-11-15T02:49:17;85.23;;;34.40;;
6840;SDS011;3458;53.678;14.080;2022-11-15T02:51:44;85.53;;;37.10;;
6840;SDS011;3458;53.678;14.080;2022-11-15T02:54:12;114.17;;;38.10;;
6840;SDS011;3458;53.678;14.080;2022-11-15T02:56:41;98.77;;;37.57;;
6840;SDS011;3458;53.678;14.080;2022-11-15T03:00:11;93.20;;;38.30;;
6840;SDS011;3458;53.678;14.080;2022-11-15T03:05:03;95.47;;;36.63;;
6840;SDS011;3458;53.678;14.080;2022-11-15T03:07:39;92.23;;;35.10;;
6840;SDS011;3458;53.678;14.080;2022-11-15T03:10:24;84.47;;;34.53;;
6840;SDS011;3458;53.678;14.080;2022-11-15T03:12:59;88.40;;;34.87;;
6840;SDS011;3458;53.678;14.080;2022-11-15T03:15:36;84.20;;;35.10;;
6840;SDS011;3458;53.678;14.080;2022-11-15T03:18:22;94.43;;;34.67;;
6840;SDS011;3458;53.678;14.080;2022-11-15T03:20:55;97.93;;;36.83;;
6840;SDS011;3458;53.678;14.080;2022-11-15T03:23:22;100.53;;;36.60;;
6840;SDS011;3458;53.678;14.080;2022-11-15T03:25:50;96.20;;;36.67;;
6840;SDS011;3458;53.678;14.080;2022-11-15T03:28:20;97.47;;;34.33;;
6840;SDS011;3458;53.678;14.080;2022-11-15T03:30:50;93.90;;;33.80;;
6840;SDS011;3458;53.678;14.080;2022-11-15T03:33:18;92.17;;;36.60;;
6840;SDS011;3458;53.678;14.080;2022-11-15T03:35:45;94.37;;;35.57;;
6840;SDS011;3458;53.678;14.080;2022-11-15T03:38:25;90.17;;;37.10;;
6840;SDS011;3458;53.678;14.080;2022-11-15T03:40:56;93.13;;;36.27;;
6840;SDS011;3458;53.678;14.080;2022-11-15T03:43:29;92.43;;;35.03;;
6840;SDS011;3458;53.678;14.080;2022-11-15T03:46:16;94.23;;;36.53;;
6840;SDS011;3458;53.678;14.080;2022-11-15T03:49:09;84.67;;;35.00;;
6840;SDS011;3458;53.678;14.080;2022-11-15T03:51:39;87.70;;;35.90;;
6840;SDS011;3458;53.678;14.080;2022-11-15T03:54:05;90.43;;;34.17;;
6840;SDS011;3458;53.678;14.080;2022-11-15T03:56:30;108.87;;;36.10;;
6840;SDS011;3458;53.678;14.080;2022-11-15T03:58:56;93.40;;;34.80;;
6840;SDS011;3458;53.678;14.080;2022-11-15T04:01:22;86.83;;;36.27;;
6840;SDS011;3458;53.678;14.080;2022-11-15T04:03:47;83.80;;;34.00;;
6840;SDS011;3458;53.678;14.080;2022-11-15T04:06:13;85.77;;;35.60;;
6840;SDS011;3458;53.678;14.080;2022-11-15T04:08:39;95.43;;;38.47;;
6840;SDS011;3458;53.678;14.080;2022-11-15T04:11:04;84.47;;;35.53;;
6840;SDS011;3458;53.678;14.080;2022-11-15T04:13:30;91.30;;;36.00;;
6840;SDS011;3458;53.678;14.080;2022-11-15T04:15:55;92.20;;;36.90;;
6840;SDS011;3458;53.678;14.080;2022-11-15T04:18:21;86.60;;;35.87;;
6840;SDS011;3458;53.678;14.080;2022-11-15T04:20:46;102.83;;;36.73;;
6840;SDS011;3458;53.678;14.080;2022-11-15T04:23:31;91.90;;;36.13;;
6840;SDS011;3458;53.678;14.080;2022-11-15T04:26:16;93.60;;;36.57;;
6840;SDS011;3458;53.678;14.080;2022-11-15T04:28:44;93.33;;;36.47;;
6840;SDS011;3458;53.678;14.080;2022-11-15T04:31:28;95.83;;;36.17;;
6840;SDS011;3458;53.678;14.080;2022-11-15T04:33:54;91.60;;;34.97;;
6840;SDS011;3458;53.678;14.080;2022-11-15T04:36:20;100.07;;;37.53;;
6840;SDS011;3458;53.678;14.080;2022-11-15T04:39:05;102.83;;;37.10;;
6840;SDS011;3458;53.678;14.080;2022-11-15T04:41:30;104.83;;;39.63;;
6840;SDS011;3458;53.678;14.080;2022-11-15T04:43:56;95.17;;;36.60;;
6840;SDS011;3458;53.678;14.080;2022-11-15T04:46:22;95.13;;;38.37;;
6840;SDS011;3458;53.678;14.080;2022-11-15T04:48:48;105.10;;;40.37;;
6840;SDS011;3458;53.678;14.080;2022-11-15T04:51:14;101.53;;;38.10;;
6840;SDS011;3458;53.678;14.080;2022-11-15T04:53:40;99.23;;;38.97;;
6840;SDS011;3458;53.678;14.080;2022-11-15T04:56:05;107.20;;;37.60;;
6840;SDS011;3458;53.678;14.080;2022-11-15T04:58:31;105.70;;;40.07;;
6840;SDS011;3458;53.678;14.080;2022-11-15T05:00:57;110.40;;;44.80;;
6840;SDS011;3458;53.678;14.080;2022-11-15T05:03:22;110.07;;;39.07;;
6840;SDS011;3458;53.678;14.080;2022-11-15T05:06:06;108.73;;;42.00;;
6840;SDS011;3458;53.678;14.080;2022-11-15T05:08:32;95.57;;;38.80;;
6840;SDS011;3458;53.678;14.080;2022-11-15T05:10:58;99.70;;;37.87;;
6840;SDS011;3458;53.678;14.080;2022-11-15T05:13:23;102.47;;;42.33;;
6840;SDS011;3458;53.678;14.080;2022-11-15T05:15:49;108.70;;;39.73;;
6840;SDS011;3458;53.678;14.080;2022-11-15T05:18:15;110.57;;;42.47;;
6840;SDS011;3458;53.678;14.080;2022-11-15T05:20:40;105.60;;;41.80;;
6840;SDS011;3458;53.678;14.080;2022-11-15T05:23:09;128.07;;;44.33;;
6840;SDS011;3458;53.678;14.080;2022-11-15T05:25:35;84.23;;;35.30;;
6840;SDS011;3458;53.678;14.080;2022-11-15T05:28:01;90.70;;;34.77;;
6840;SDS011;3458;53.678;14.080;2022-11-15T05:30:27;103.03;;;37.10;;
6840;SDS011;3458;53.678;14.080;2022-11-15T05:32:52;91.13;;;35.57;;
6840;SDS011;3458;53.678;14.080;2022-11-15T05:35:20;94.23;;;35.57;;
6840;SDS011;3458;53.678;14.080;2022-11-15T05:38:14;83.67;;;34.33;;
6840;SDS011;3458;53.678;14.080;2022-11-15T05:40:40;93.70;;;36.13;;
6840;SDS011;3458;53.678;14.080;2022-11-15T05:43:05;96.23;;;35.40;;
6840;SDS011;3458;53.678;14.080;2022-11-15T05:45:31;88.90;;;36.73;;
6840;SDS011;3458;53.678;14.080;2022-11-15T05:47:58;82.03;;;33.03;;
6840;SDS011;3458;53.678;14.080;2022-11-15T05:50:25;80.60;;;34.00;;
6840;SDS011;3458;53.678;14.080;2022-11-15T05:52:52;86.00;;;35.03;;
6840;SDS011;3458;53.678;14.080;2022-11-15T05:55:19;96.40;;;36.87;;
6840;SDS011;3458;53.678;14.080;2022-11-15T05:57:44;86.23;;;34.93;;
6840;SDS011;3458;53.678;14.080;2022-11-15T06:00:10;84.67;;;35.17;;
6840;SDS011;3458;53.678;14.080;2022-11-15T06:02:36;82.93;;;33.30;;
6840;SDS011;3458;53.678;14.080;2022-11-15T06:05:01;99.93;;;37.57;;
6840;SDS011;3458;53.678;14.080;2022-11-15T06:07:28;107.67;;;39.30;;
6840;SDS011;3458;53.678;14.080;2022-11-15T06:09:54;92.53;;;37.73;;
6840;SDS011;3458;53.678;14.080;2022-11-15T06:12:20;89.63;;;36.73;;
6840;SDS011;3458;53.678;14.080;2022-11-15T06:14:45;86.60;;;36.67;;
6840;SDS011;3458;53.678;14.080;2022-11-15T06:17:11;86.90;;;36.50;;
6840;SDS011;3458;53.678;14.080;2022-11-15T06:19:36;92.60;;;36.80;;
6840;SDS011;3458;53.678;14.080;2022-11-15T06:22:02;91.07;;;36.80;;
6840;SDS011;3458;53.678;14.080;2022-11-15T06:24:27;91.87;;;35.70;;
6840;SDS011;3458;53.678;14.080;2022-11-15T06:26:53;87.77;;;33.97;;
6840;SDS011;3458;53.678;14.080;2022-11-15T06:29:18;85.10;;;36.90;;
6840;SDS011;3458;53.678;14.080;2022-11-15T06:31:44;89.77;;;34.77;;
6840;SDS011;3458;53.678;14.080;2022-11-15T06:34:09;103.00;;;37.90;;
6840;SDS011;3458;53.678;14.080;2022-11-15T06:36:35;85.63;;;33.67;;
6840;SDS011;3458;53.678;14.080;2022-11-15T06:39:02;85.80;;;33.90;;
6840;SDS011;3458;53.678;14.080;2022-11-15T06:41:28;86.80;;;35.20;;
6840;SDS011;3458;53.678;14.080;2022-11-15T06:43:53;87.97;;;35.40;;
6840;SDS011;3458;53.678;14.080;2022-11-15T06:46:19;81.90;;;34.50;;
6840;SDS011;3458;53.678;14.080;2022-11-15T06:48:44;88.20;;;37.53;;
6840;SDS011;3458;53.678;14.080;2022-11-15T06:51:10;105.30;;;41.17;;
6840;SDS011;3458;53.678;14.080;2022-11-15T06:53:36;95.97;;;37.00;;
6840;SDS011;3458;53.678;14.080;2022-11-15T06:56:03;83.20;;;36.10;;
6840;SDS011;3458;53.678;14.080;2022-11-15T06:58:30;86.20;;;35.77;;
6840;SDS011;3458;53.678;14.080;2022-11-15T07:01:09;84.17;;;35.07;;
6840;SDS011;3458;53.678;14.080;2022-11-15T07:03:37;90.07;;;35.93;;
6840;SDS011;3458;53.678;14.080;2022-11-15T07:06:04;93.57;;;34.80;;
6840;SDS011;3458;53.678;14.080;2022-11-15T07:08:30;93.77;;;35.77;;
6840;SDS011;3458;53.678;14.080;2022-11-15T07:11:03;85.30;;;35.27;;
6840;SDS011;3458;53.678;14.080;2022-11-15T07:13:31;93.87;;;35.10;;
6840;SDS011;3458;53.678;14.080;2022-11-15T07:16:01;94.37;;;36.07;;
6840;SDS011;3458;53.678;14.080;2022-11-15T07:18:31;83.90;;;35.50;;
6840;SDS011;3458;53.678;14.080;2022-11-15T07:21:03;81.77;;;33.43;;
6840;SDS011;3458;53.678;14.080;2022-11-15T07:23:29;73.10;;;31.13;;
6840;SDS011;3458;53.678;14.080;2022-11-15T07:25:58;80.90;;;33.73;;
6840;SDS011;3458;53.678;14.080;2022-11-15T07:28:24;84.17;;;34.30;;
6840;SDS011;3458;53.678;14.080;2022-11-15T07:30:51;76.20;;;33.40;;
6840;SDS011;3458;53.678;14.080;2022-11-15T07:33:16;74.80;;;31.87;;
6840;SDS011;3458;53.678;14.080;2022-11-15T07:35:42;74.50;;;33.00;;
6840;SDS011;3458;53.678;14.080;2022-11-15T07:38:07;71.83;;;32.23;;
6840;SDS011;3458;53.678;14.080;2022-11-15T07:40:33;78.87;;;33.40;;
6840;SDS011;3458;53.678;14.080;2022-11-15T07:43:00;74.13;;;33.07;;
6840;SDS011;3458;53.678;14.080;2022-11-15T07:45:26;76.43;;;32.03;;
6840;SDS011;3458;53.678;14.080;2022-11-15T07:47:52;84.20;;;33.37;;
6840;SDS011;3458;53.678;14.080;2022-11-15T07:50:18;74.40;;;32.43;;
6840;SDS011;3458;53.678;14.080;2022-11-15T07:52:44;91.50;;;34.83;;
6840;SDS011;3458;53.678;14.080;2022-11-15T07:55:10;80.97;;;33.10;;
6840;SDS011;3458;53.678;14.080;2022-11-15T07:57:36;76.60;;;33.07;;
6840;SDS011;3458;53.678;14.080;2022-11-15T08:00:02;75.03;;;33.63;;
6840;SDS011;3458;53.678;14.080;2022-11-15T08:02:29;74.63;;;33.07;;
6840;SDS011;3458;53.678;14.080;2022-11-15T08:04:54;78.87;;;33.00;;
6840;SDS011;3458;53.678;14.080;2022-11-15T08:07:20;80.67;;;32.70;;
6840;SDS011;3458;53.678;14.080;2022-11-15T08:09:45;76.10;;;33.70;;
6840;SDS011;3458;53.678;14.080;2022-11-15T08:12:11;72.03;;;30.13;;
6840;SDS011;3458;53.678;14.080;2022-11-15T08:14:36;69.47;;;30.83;;
6840;SDS011;3458;53.678;14.080;2022-11-15T08:17:02;74.80;;;31.33;;
6840;SDS011;3458;53.678;14.080;2022-11-15T08:19:27;87.33;;;32.50;;
6840;SDS011;3458;53.678;14.080;2022-11-15T08:21:53;74.50;;;30.30;;
6840;SDS011;3458;53.678;14.080;2022-11-15T08:24:18;75.53;;;31.63;;
6840;SDS011;3458;53.678;14.080;2022-11-15T08:26:45;79.43;;;33.97;;
6840;SDS011;3458;53.678;14.080;2022-11-15T08:29:10;70.93;;;30.93;;
6840;SDS011;3458;53.678;14.080;2022-11-15T08:31:36;71.43;;;31.83;;
6840;SDS011;3458;53.678;14.080;2022-11-15T08:34:02;77.03;;;32.57;;
6840;SDS011;3458;53.678;14.080;2022-11-15T08:36:28;72.57;;;30.70;;
6840;SDS011;3458;53.678;14.080;2022-11-15T08:38:54;86.13;;;33.63;;
6840;SDS011;3458;53.678;14.080;2022-11-15T08:41:24;64.47;;;29.23;;
6840;SDS011;3458;53.678;14.080;2022-11-15T08:43:53;74.57;;;30.70;;
6840;SDS011;3458;53.678;14.080;2022-11-15T08:46:18;69.57;;;29.60;;
6840;SDS011;3458;53.678;14.080;2022-11-15T08:48:44;69.87;;;30.03;;
6840;SDS011;3458;53.678;14.080;2022-11-15T08:51:10;80.17;;;31.50;;
6840;SDS011;3458;53.678;14.080;2022-11-15T08:53:35;79.13;;;31.80;;
6840;SDS011;3458;53.678;14.080;2022-11-15T08:56:01;75.90;;;32.40;;
6840;SDS011;3458;53.678;14.080;2022-11-15T08:58:27;79.53;;;31.80;;
6840;SDS011;3458;53.678;14.080;2022-11-15T09:00:53;75.80;;;32.53;;
6840;SDS011;3458;53.678;14.080;2022-11-15T09:03:19;78.30;;;32.37;;
6840;SDS011;3458;53.678;14.080;2022-11-15T09:05:44;67.83;;;30.37;;
6840;SDS011;3458;53.678;14.080;2022-11-15T09:08:10;76.67;;;31.13;;
6840;SDS011;3458;53.678;14.080;2022-11-15T09:10:36;75.43;;;31.80;;
6840;SDS011;3458;53.678;14.080;2022-11-15T09:13:01;77.67;;;31.77;;
6840;SDS011;3458;53.678;14.080;2022-11-15T09:15:27;69.77;;;30.37;;
6840;SDS011;3458;53.678;14.080;2022-11-15T09:17:52;78.00;;;32.20;;
6840;SDS011;3458;53.678;14.080;2022-11-15T09:20:18;70.63;;;27.83;;
6840;SDS011;3458;53.678;14.080;2022-11-15T09:22:43;78.20;;;31.93;;
6840;SDS011;3458;53.678;14.080;2022-11-15T09:25:09;74.57;;;29.07;;
6840;SDS011;3458;53.678;14.080;2022-11-15T09:27:35;74.00;;;29.27;;
6840;SDS011;3458;53.678;14.080;2022-11-15T09:30:00;75.30;;;28.20;;
6840;SDS011;3458;53.678;14.080;2022-11-15T09:32:29;66.40;;;28.70;;
6840;SDS011;3458;53.678;14.080;2022-11-15T09:34:57;70.40;;;30.33;;
6840;SDS011;3458;53.678;14.080;2022-11-15T09:37:23;70.40;;;29.67;;
6840;SDS011;3458;53.678;14.080;2022-11-15T09:39:49;77.47;;;31.80;;
6840;SDS011;3458;53.678;14.080;2022-11-15T09:42:30;69.27;;;28.43;;
6840;SDS011;3458;53.678;14.080;2022-11-15T09:45:15;71.30;;;29.20;;
6840;SDS011;3458;53.678;14.080;2022-11-15T09:50:31;68.93;;;29.87;;
6840;SDS011;3458;53.678;14.080;2022-11-15T09:53:01;72.87;;;31.40;;
6840;SDS011;3458;53.678;14.080;2022-11-15T09:55:32;76.10;;;35.40;;
6840;SDS011;3458;53.678;14.080;2022-11-15T09:58:14;64.10;;;28.43;;
6840;SDS011;3458;53.678;14.080;2022-11-15T10:00:49;68.90;;;30.67;;
6840;SDS011;3458;53.678;14.080;2022-11-15T10:03:23;69.77;;;29.27;;
6840;SDS011;3458;53.678;14.080;2022-11-15T10:06:01;70.30;;;29.73;;
6840;SDS011;3458;53.678;14.080;2022-11-15T10:08:31;74.37;;;29.33;;
6840;SDS011;3458;53.678;14.080;2022-11-15T10:11:28;64.70;;;30.83;;
6840;SDS011;3458;53.678;14.080;2022-11-15T10:13:57;75.13;;;33.60;;
6840;SDS011;3458;53.678;14.080;2022-11-15T10:22:24;70.67;;;29.27;;
6840;SDS011;3458;53.678;14.080;2022-11-15T10:25:27;70.20;;;31.20;;
6840;SDS011;3458;53.678;14.080;2022-11-15T10:27:53;66.43;;;29.43;;
6840;SDS011;3458;53.678;14.080;2022-11-15T10:30:44;61.60;;;28.60;;
6840;SDS011;3458;53.678;14.080;2022-11-15T10:33:12;58.20;;;26.73;;
6840;SDS011;3458;53.678;14.080;2022-11-15T10:35:43;66.83;;;29.20;;
6840;SDS011;3458;53.678;14.080;2022-11-15T10:38:09;67.47;;;30.30;;
6840;SDS011;3458;53.678;14.080;2022-11-15T10:40:36;61.90;;;28.47;;
6840;SDS011;3458;53.678;14.080;2022-11-15T10:43:13;60.70;;;28.07;;
6840;SDS011;3458;53.678;14.080;2022-11-15T10:45:43;66.47;;;29.20;;
6840;SDS011;3458;53.678;14.080;2022-11-15T10:50:42;72.30;;;31.57;;
6840;SDS011;3458;53.678;14.080;2022-11-15T10:53:22;71.63;;;30.90;;
6840;SDS011;3458;53.678;14.080;2022-11-15T10:55:49;76.70;;;35.00;;
6840;SDS011;3458;53.678;14.080;2022-11-15T11:00:52;68.27;;;30.47;;
6840;SDS011;3458;53.678;14.080;2022-11-15T11:03:28;74.67;;;31.13;;
6840;SDS011;3458;53.678;14.080;2022-11-15T11:06:03;84.90;;;32.70;;
6840;SDS011;3458;53.678;14.080;2022-11-15T11:08:29;66.13;;;29.33;;
6840;SDS011;3458;53.678;14.080;2022-11-15T11:10:55;72.20;;;30.13;;
6840;SDS011;3458;53.678;14.080;2022-11-15T11:13:23;62.93;;;27.77;;
6840;SDS011;3458;53.678;14.080;2022-11-15T11:15:59;69.63;;;30.83;;
6840;SDS011;3458;53.678;14.080;2022-11-15T11:18:43;65.43;;;29.30;;
6840;SDS011;3458;53.678;14.080;2022-11-15T11:21:15;68.63;;;29.70;;
6840;SDS011;3458;53.678;14.080;2022-11-15T11:23:52;79.43;;;34.07;;
6840;SDS011;3458;53.678;14.080;2022-11-15T11:26:31;68.93;;;29.70;;
6840;SDS011;3458;53.678;14.080;2022-11-15T11:37:20;74.87;;;30.90;;
6840;SDS011;3458;53.678;14.080;2022-11-15T11:40:16;77.87;;;32.10;;
6840;SDS011;3458;53.678;14.080;2022-11-15T11:45:27;72.43;;;31.20;;
6840;SDS011;3458;53.678;14.080;2022-11-15T11:48:11;71.50;;;30.57;;
6840;SDS011;3458;53.678;14.080;2022-11-15T11:50:40;70.13;;;30.67;;
6840;SDS011;3458;53.678;14.080;2022-11-15T11:53:26;77.27;;;33.47;;
6840;SDS011;3458;53.678;14.080;2022-11-15T11:55:57;75.77;;;29.90;;
6840;SDS011;3458;53.678;14.080;2022-11-15T11:58:33;64.47;;;28.93;;
6840;SDS011;3458;53.678;14.080;2022-11-15T12:01:10;71.47;;;28.20;;
6840;SDS011;3458;53.678;14.080;2022-11-15T12:03:55;66.10;;;28.73;;
6840;SDS011;3458;53.678;14.080;2022-11-15T12:06:46;71.03;;;28.87;;
6840;SDS011;3458;53.678;14.080;2022-11-15T12:12:15;65.50;;;29.20;;
6840;SDS011;3458;53.678;14.080;2022-11-15T12:17:45;70.00;;;29.17;;
6840;SDS011;3458;53.678;14.080;2022-11-15T12:23:32;63.77;;;27.33;;
6840;SDS011;3458;53.678;14.080;2022-11-15T12:25:55;56.70;;;26.23;;
6840;SDS011;3458;53.678;14.080;2022-11-15T12:28:46;68.63;;;28.53;;
6840;SDS011;3458;53.678;14.080;2022-11-15T12:31:19;61.27;;;28.30;;
6840;SDS011;3458;53.678;14.080;2022-11-15T12:34:01;58.20;;;26.27;;
6840;SDS011;3458;53.678;14.080;2022-11-15T12:39:07;58.70;;;27.47;;
6840;SDS011;3458;53.678;14.080;2022-11-15T12:41:35;71.87;;;28.93;;
6840;SDS011;3458;53.678;14.080;2022-11-15T12:44:02;71.50;;;29.10;;
6840;SDS011;3458;53.678;14.080;2022-11-15T13:02:36;58.13;;;26.40;;
6840;SDS011;3458;53.678;14.080;2022-11-15T13:12:48;79.40;;;29.67;;
6840;SDS011;3458;53.678;14.080;2022-11-15T13:15:35;67.87;;;28.37;;
6840;SDS011;3458;53.678;14.080;2022-11-15T13:18:34;64.33;;;28.63;;
6840;SDS011;3458;53.678;14.080;2022-11-15T13:21:02;64.87;;;26.90;;
6840;SDS011;3458;53.678;14.080;2022-11-15T13:23:53;76.60;;;32.37;;
6840;SDS011;3458;53.678;14.080;2022-11-15T13:26:19;91.83;;;32.63;;
6840;SDS011;3458;53.678;14.080;2022-11-15T13:28:49;77.70;;;31.50;;
6840;SDS011;3458;53.678;14.080;2022-11-15T13:31:24;107.20;;;35.20;;
6840;SDS011;3458;53.678;14.080;2022-11-15T13:33:52;96.57;;;35.20;;
6840;SDS011;3458;53.678;14.080;2022-11-15T13:36:22;120.60;;;37.10;;
6840;SDS011;3458;53.678;14.080;2022-11-15T13:38:54;122.97;;;37.87;;
6840;SDS011;3458;53.678;14.080;2022-11-15T13:41:23;158.13;;;41.10;;
6840;SDS011;3458;53.678;14.080;2022-11-15T13:43:51;172.47;;;44.37;;
6840;SDS011;3458;53.678;14.080;2022-11-15T13:46:31;184.00;;;46.60;;
6840;SDS011;3458;53.678;14.080;2022-11-15T13:49:04;202.73;;;46.80;;
6840;SDS011;3458;53.678;14.080;2022-11-15T13:51:37;189.80;;;44.60;;
6840;SDS011;3458;53.678;14.080;2022-11-15T13:56:42;142.03;;;41.07;;
6840;SDS011;3458;53.678;14.080;2022-11-15T13:59:22;135.03;;;40.00;;
6840;SDS011;3458;53.678;14.080;2022-11-15T14:01:51;123.17;;;36.20;;
6840;SDS011;3458;53.678;14.080;2022-11-15T14:04:18;122.27;;;38.97;;
6840;SDS011;3458;53.678;14.080;2022-11-15T14:06:47;115.60;;;36.70;;
6840;SDS011;3458;53.678;14.080;2022-11-15T14:12:20;116.83;;;37.50;;
6840;SDS011;3458;53.678;14.080;2022-11-15T14:14:50;108.40;;;33.33;;
6840;SDS011;3458;53.678;14.080;2022-11-15T14:19:52;83.17;;;30.83;;
6840;SDS011;3458;53.678;14.080;2022-11-15T14:22:19;88.57;;;31.43;;
6840;SDS011;3458;53.678;14.080;2022-11-15T14:24:55;88.60;;;33.33;;
6840;SDS011;3458;53.678;14.080;2022-11-15T14:27:31;90.30;;;33.50;;
6840;SDS011;3458;53.678;14.080;2022-11-15T14:29:57;109.83;;;36.23;;
6840;SDS011;3458;53.678;14.080;2022-11-15T14:32:24;113.67;;;34.77;;
6840;SDS011;3458;53.678;14.080;2022-11-15T14:34:55;86.20;;;34.60;;
6840;SDS011;3458;53.678;14.080;2022-11-15T14:39:51;105.77;;;37.10;;
6840;SDS011;3458;53.678;14.080;2022-11-15T14:42:18;87.93;;;31.73;;
6840;SDS011;3458;53.678;14.080;2022-11-15T14:44:44;117.63;;;36.37;;
6840;SDS011;3458;53.678;14.080;2022-11-15T14:47:09;96.77;;;34.63;;
6840;SDS011;3458;53.678;14.080;2022-11-15T14:49:35;91.27;;;32.90;;
6840;SDS011;3458;53.678;14.080;2022-11-15T14:52:00;101.87;;;32.60;;
6840;SDS011;3458;53.678;14.080;2022-11-15T14:54:26;87.87;;;32.40;;
6840;SDS011;3458;53.678;14.080;2022-11-15T14:56:51;94.67;;;34.00;;
6840;SDS011;3458;53.678;14.080;2022-11-15T14:59:17;90.03;;;32.30;;
6840;SDS011;3458;53.678;14.080;2022-11-15T15:01:42;84.07;;;30.97;;
6840;SDS011;3458;53.678;14.080;2022-11-15T15:04:09;98.30;;;30.57;;
6840;SDS011;3458;53.678;14.080;2022-11-15T15:06:35;82.20;;;30.27;;
6840;SDS011;3458;53.678;14.080;2022-11-15T15:09:01;89.40;;;31.33;;
6840;SDS011;3458;53.678;14.080;2022-11-15T15:11:27;87.23;;;30.53;;
6840;SDS011;3458;53.678;14.080;2022-11-15T15:13:55;88.20;;;30.70;;
6840;SDS011;3458;53.678;14.080;2022-11-15T15:16:23;78.90;;;32.60;;
6840;SDS011;3458;53.678;14.080;2022-11-15T15:18:49;96.30;;;37.43;;
6840;SDS011;3458;53.678;14.080;2022-11-15T15:21:20;86.07;;;27.83;;
6840;SDS011;3458;53.678;14.080;2022-11-15T15:23:47;81.87;;;29.83;;
6840;SDS011;3458;53.678;14.080;2022-11-15T15:26:13;77.93;;;29.10;;
6840;SDS011;3458;53.678;14.080;2022-11-15T15:28:39;96.20;;;30.93;;
6840;SDS011;3458;53.678;14.080;2022-11-15T15:31:04;80.57;;;27.77;;
6840;SDS011;3458;53.678;14.080;2022-11-15T15:33:30;78.70;;;30.47;;
6840;SDS011;3458;53.678;14.080;2022-11-15T15:35:57;67.90;;;28.23;;
6840;SDS011;3458;53.678;14.080;2022-11-15T15:38:22;89.77;;;29.93;;
6840;SDS011;3458;53.678;14.080;2022-11-15T15:40:48;74.17;;;27.77;;
6840;SDS011;3458;53.678;14.080;2022-11-15T15:43:13;69.73;;;26.70;;
6840;SDS011;3458;53.678;14.080;2022-11-15T15:45:40;70.53;;;28.07;;
6840;SDS011;3458;53.678;14.080;2022-11-15T15:48:13;65.57;;;26.43;;
6840;SDS011;3458;53.678;14.080;2022-11-15T15:50:40;68.60;;;26.47;;
6840;SDS011;3458;53.678;14.080;2022-11-15T15:53:08;70.80;;;28.20;;
6840;SDS011;3458;53.678;14.080;2022-11-15T15:55:35;72.17;;;28.47;;
6840;SDS011;3458;53.678;14.080;2022-11-15T15:58:01;67.97;;;27.07;;
6840;SDS011;3458;53.678;14.080;2022-11-15T16:00:27;73.60;;;28.97;;
6840;SDS011;3458;53.678;14.080;2022-11-15T16:02:53;73.77;;;27.47;;
6840;SDS011;3458;53.678;14.080;2022-11-15T16:05:19;72.33;;;26.10;;
6840;SDS011;3458;53.678;14.080;2022-11-15T16:07:45;73.73;;;28.40;;